createdAt,value
2022-09-03T00:01:42.464Z,2.20
2022-09-03T00:04:13.358Z,2.13
2022-09-03T00:06:50.095Z,1.80
2022-09-03T00:09:23.702Z,1.58
2022-09-03T00:11:53.508Z,2.00
2022-09-03T00:14:22.255Z,2.10
2022-09-03T00:16:53.127Z,1.80
2022-09-03T00:19:22.666Z,2.33
2022-09-03T00:21:51.931Z,1.60
2022-09-03T00:24:21.903Z,1.73
2022-09-03T00:26:51.296Z,1.50
2022-09-03T00:29:20.430Z,2.05
2022-09-03T00:31:49.510Z,1.50
2022-09-03T00:34:23.250Z,2.72
2022-09-03T00:36:50.615Z,1.70
2022-09-03T00:39:18.979Z,2.20
2022-09-03T00:41:54.403Z,2.13
2022-09-03T00:44:30.261Z,1.70
2022-09-03T00:47:01.059Z,1.90
2022-09-03T00:49:38.933Z,1.77
2022-09-03T00:52:12.503Z,2.27
2022-09-03T00:54:43.940Z,2.00
2022-09-03T00:57:32.984Z,1.52
2022-09-03T01:00:06.194Z,1.98
2022-09-03T01:02:41.255Z,1.90
2022-09-03T01:05:12.209Z,1.80
2022-09-03T01:07:42.062Z,1.93
2022-09-03T01:10:16.942Z,1.67
2022-09-03T01:18:22.628Z,2.00
2022-09-03T01:20:56.222Z,1.90
2022-09-03T01:23:35.183Z,2.07
2022-09-03T01:26:09.060Z,1.90
2022-09-03T01:28:51.891Z,1.85
2022-09-03T01:31:24.377Z,2.20
2022-09-03T01:33:59.000Z,1.70
2022-09-03T01:36:30.597Z,1.87
2022-09-03T01:39:00.363Z,1.83
2022-09-03T01:41:31.486Z,2.20
2022-09-03T01:44:03.429Z,1.50
2022-09-03T01:46:34.539Z,1.97
2022-09-03T01:49:04.166Z,1.67
2022-09-03T01:51:32.428Z,2.10
2022-09-03T01:54:27.322Z,1.80
2022-09-03T01:57:36.924Z,2.10
2022-09-03T02:00:04.292Z,2.40
2022-09-03T02:02:40.777Z,1.93
2022-09-03T02:05:09.747Z,1.60
2022-09-03T02:07:38.750Z,1.60
2022-09-03T02:10:07.750Z,1.87
2022-09-03T02:12:36.430Z,1.83
2022-09-03T02:15:06.804Z,2.17
2022-09-03T02:17:35.596Z,2.63
2022-09-03T02:20:05.924Z,2.00
2022-09-03T02:22:33.772Z,1.67
2022-09-03T02:25:01.437Z,2.50
2022-09-03T02:27:49.022Z,1.60
2022-09-03T02:30:16.512Z,1.97
2022-09-03T02:32:43.743Z,1.90
2022-09-03T02:35:12.633Z,1.80
2022-09-03T02:37:40.884Z,1.67
2022-09-03T02:40:08.669Z,1.47
2022-09-03T02:42:54.500Z,2.00
2022-09-03T02:45:24.807Z,1.50
2022-09-03T02:47:54.043Z,1.80
2022-09-03T02:50:22.736Z,1.90
2022-09-03T02:56:14.552Z,2.40
2022-09-03T02:58:41.839Z,1.60
2022-09-03T03:01:09.109Z,1.90
2022-09-03T03:03:36.414Z,1.73
2022-09-03T03:06:06.306Z,2.20
2022-09-03T03:08:33.627Z,2.10
2022-09-03T03:11:00.954Z,1.90
2022-09-03T03:13:28.675Z,2.17
2022-09-03T03:15:57.008Z,1.83
2022-09-03T03:18:24.430Z,2.00
2022-09-03T03:20:51.787Z,1.87
2022-09-03T03:23:20.346Z,2.00
2022-09-03T03:25:48.431Z,1.93
2022-09-03T03:28:20.930Z,1.90
2022-09-03T03:31:07.397Z,2.10
2022-09-03T03:33:41.602Z,2.43
2022-09-03T03:36:10.094Z,2.10
2022-09-03T03:38:39.018Z,1.70
2022-09-03T03:41:09.883Z,4.30
2022-09-03T03:43:37.315Z,2.50
2022-09-03T03:46:04.893Z,2.27
2022-09-03T03:48:38.376Z,2.10
2022-09-03T03:51:06.515Z,2.10
2022-09-03T03:53:34.263Z,2.23
2022-09-03T03:56:03.866Z,2.43
2022-09-03T03:58:49.442Z,2.17
2022-09-03T04:01:42.284Z,2.60
2022-09-03T04:04:09.652Z,1.90
2022-09-03T04:06:36.847Z,1.73
2022-09-03T04:09:04.290Z,2.37
2022-09-03T04:11:32.870Z,1.87
2022-09-03T04:14:00.157Z,2.13
2022-09-03T04:16:28.153Z,1.83
2022-09-03T04:18:56.268Z,2.10
2022-09-03T04:21:24.267Z,1.90
2022-09-03T04:23:53.209Z,1.93
2022-09-03T04:26:21.234Z,2.20
2022-09-03T04:28:49.993Z,2.00
2022-09-03T04:31:18.121Z,2.30
2022-09-03T04:33:45.559Z,1.37
2022-09-03T04:36:13.495Z,2.73
2022-09-03T04:38:41.464Z,2.40
2022-09-03T04:41:10.020Z,2.30
2022-09-03T04:43:37.455Z,2.43
2022-09-03T04:46:08.427Z,2.40
2022-09-03T04:48:44.105Z,1.80
2022-09-03T04:51:12.289Z,2.20
2022-09-03T04:53:40.344Z,2.20
2022-09-03T04:56:13.139Z,2.00
2022-09-03T04:58:40.518Z,2.37
2022-09-03T05:01:13.888Z,2.00
2022-09-03T05:03:41.151Z,2.40
2022-09-03T05:06:08.578Z,2.57
2022-09-03T05:08:36.410Z,2.23
2022-09-03T05:11:04.094Z,2.17
2022-09-03T05:13:31.408Z,2.03
2022-09-03T05:16:01.560Z,2.10
2022-09-03T05:18:30.461Z,2.23
2022-09-03T05:21:01.202Z,2.10
2022-09-03T05:23:28.889Z,2.03
2022-09-03T05:25:56.647Z,2.20
2022-09-03T05:28:23.960Z,2.30
2022-09-03T05:33:45.156Z,2.50
2022-09-03T05:36:13.406Z,2.37
2022-09-03T05:38:41.002Z,2.40
2022-09-03T05:41:09.666Z,2.07
2022-09-03T05:43:37.250Z,2.20
2022-09-03T05:46:11.320Z,2.50
2022-09-03T05:48:39.662Z,3.07
2022-09-03T05:51:09.227Z,2.40
2022-09-03T05:53:37.438Z,2.10
2022-09-03T05:56:05.354Z,2.30
2022-09-03T05:58:32.692Z,2.60
2022-09-03T06:01:00.038Z,2.10
2022-09-03T06:03:27.755Z,2.23
2022-09-03T06:05:55.464Z,2.10
2022-09-03T06:08:24.042Z,2.40
2022-09-03T06:10:51.279Z,2.13
2022-09-03T06:13:18.503Z,2.53
2022-09-03T06:15:45.776Z,2.60
2022-09-03T06:18:13.048Z,2.07
2022-09-03T06:20:40.271Z,2.10
2022-09-03T06:23:07.513Z,2.40
2022-09-03T06:25:36.150Z,2.17
2022-09-03T06:28:03.813Z,2.40
2022-09-03T06:30:31.127Z,2.50
2022-09-03T06:32:58.348Z,2.50
2022-09-03T06:35:25.703Z,2.03
2022-09-03T06:37:55.808Z,1.60
2022-09-03T06:40:23.087Z,2.70
2022-09-03T06:42:58.436Z,2.10
2022-09-03T06:45:25.785Z,2.27
2022-09-03T06:47:54.579Z,2.27
2022-09-03T06:50:21.866Z,2.03
2022-09-03T06:52:51.710Z,2.60
2022-09-03T06:55:18.949Z,2.20
2022-09-03T06:57:46.361Z,1.83
2022-09-03T07:00:16.184Z,2.03
2022-09-03T07:02:45.015Z,2.13
2022-09-03T07:05:12.387Z,1.90
2022-09-03T07:07:39.679Z,2.17
2022-09-03T07:10:07.551Z,2.10
2022-09-03T07:12:34.785Z,2.10
2022-09-03T07:15:02.103Z,2.10
2022-09-03T07:17:30.645Z,2.37
2022-09-03T07:19:57.867Z,2.37
2022-09-03T07:22:31.640Z,1.97
2022-09-03T07:24:59.111Z,2.53
2022-09-03T07:27:26.349Z,2.00
2022-09-03T07:29:53.567Z,1.50
2022-09-03T07:32:20.867Z,1.93
2022-09-03T07:34:49.396Z,1.93
2022-09-03T07:37:16.618Z,2.70
2022-09-03T07:39:43.939Z,2.57
2022-09-03T07:42:11.232Z,2.47
2022-09-03T07:44:38.464Z,1.73
2022-09-03T07:47:05.726Z,1.80
2022-09-03T07:49:32.942Z,2.20
2022-09-03T07:52:01.567Z,2.20
2022-09-03T07:54:28.774Z,1.17
2022-09-03T07:56:56.432Z,1.83
2022-09-03T07:59:24.955Z,2.05
2022-09-03T08:01:52.225Z,2.20
2022-09-03T08:04:19.476Z,1.80
2022-09-03T08:06:46.740Z,1.87
2022-09-03T08:09:15.392Z,2.08
2022-09-03T08:11:43.529Z,2.10
2022-09-03T08:14:11.799Z,2.20
2022-09-03T08:16:39.948Z,2.25
2022-09-03T08:19:07.619Z,2.20
2022-09-03T08:21:35.466Z,2.20
2022-09-03T08:24:03.010Z,1.90
2022-09-03T08:26:32.685Z,2.00
2022-09-03T08:29:00.307Z,2.00
2022-09-03T08:31:28.206Z,2.40
2022-09-03T08:33:56.551Z,2.47
2022-09-03T08:36:25.261Z,1.58
2022-09-03T08:38:53.222Z,1.55
2022-09-03T08:41:21.452Z,2.30
2022-09-03T08:44:09.535Z,1.80
2022-09-03T08:46:43.075Z,2.20
2022-09-03T08:49:12.335Z,2.13
2022-09-03T08:51:39.650Z,1.63
2022-09-03T08:54:08.384Z,2.40
2022-09-03T08:56:38.052Z,2.05
2022-09-03T08:59:05.431Z,1.50
2022-09-03T09:01:38.624Z,1.75
2022-09-03T09:04:11.385Z,1.92
2022-09-03T09:06:43.412Z,1.77
2022-09-03T09:09:16.776Z,1.38
2022-09-03T09:11:48.789Z,1.60
2022-09-03T09:14:20.007Z,1.77
2022-09-03T09:16:51.092Z,1.92
2022-09-03T09:19:26.091Z,1.75
2022-09-03T09:21:54.851Z,1.40
2022-09-03T09:24:23.499Z,2.13
2022-09-03T09:26:54.616Z,1.80
2022-09-03T09:29:21.923Z,1.63
2022-09-03T09:31:49.390Z,1.73
2022-09-03T09:34:16.650Z,1.45
2022-09-03T09:36:47.926Z,1.65
2022-09-03T09:39:15.589Z,1.80
2022-09-03T09:41:42.884Z,2.10
2022-09-03T09:44:19.138Z,2.20
2022-09-03T09:46:49.295Z,2.10
2022-09-03T09:49:29.668Z,2.17
2022-09-03T09:52:02.895Z,2.00
2022-09-03T09:54:30.206Z,2.03
2022-09-03T09:57:01.590Z,1.80
2022-09-03T09:59:34.355Z,1.73
2022-09-03T10:02:08.351Z,2.08
2022-09-03T10:04:35.666Z,2.35
2022-09-03T10:07:05.719Z,1.95
2022-09-03T10:09:33.683Z,1.73
2022-09-03T10:12:11.005Z,2.33
2022-09-03T10:14:39.869Z,2.13
2022-09-03T10:17:12.036Z,1.80
2022-09-03T10:19:44.266Z,2.25
2022-09-03T10:22:17.540Z,1.80
2022-09-03T10:24:49.556Z,2.78
2022-09-03T10:27:17.774Z,2.08
2022-09-03T10:29:45.131Z,2.15
2022-09-03T10:32:20.179Z,1.60
2022-09-03T10:34:54.938Z,1.73
2022-09-03T10:37:26.838Z,2.10
2022-09-03T10:40:02.272Z,2.20
2022-09-03T10:42:36.222Z,1.98
2022-09-03T10:45:07.975Z,1.85
2022-09-03T10:47:43.605Z,2.22
2022-09-03T10:50:13.603Z,2.78
2022-09-03T10:52:51.011Z,2.20
2022-09-03T10:55:20.725Z,2.20
2022-09-03T10:57:51.986Z,1.75
2022-09-03T11:00:19.858Z,1.88
2022-09-03T11:03:14.030Z,1.95
2022-09-03T11:05:54.129Z,2.10
2022-09-03T11:08:25.315Z,1.83
2022-09-03T11:10:55.911Z,1.90
2022-09-03T11:13:25.539Z,1.77
2022-09-03T11:15:53.589Z,2.10
2022-09-03T11:18:22.945Z,1.60
2022-09-03T11:20:51.569Z,1.92
2022-09-03T11:23:19.695Z,2.03
2022-09-03T11:25:50.510Z,1.60
2022-09-03T11:28:22.230Z,1.33
2022-09-03T11:30:53.600Z,1.50
2022-09-03T11:33:22.810Z,1.73
2022-09-03T11:35:56.489Z,1.58
2022-09-03T11:38:24.307Z,1.73
2022-09-03T11:41:04.875Z,1.42
2022-09-03T11:43:33.039Z,1.50
2022-09-03T11:46:07.862Z,1.80
2022-09-03T11:48:37.398Z,2.08
2022-09-03T11:51:04.968Z,2.22
2022-09-03T11:53:35.724Z,1.70
2022-09-03T11:56:17.631Z,1.58
2022-09-03T11:58:46.878Z,1.80
2022-09-03T12:01:16.324Z,1.90
2022-09-03T12:03:45.467Z,1.73
2022-09-03T12:06:20.912Z,1.65
2022-09-03T12:08:58.887Z,1.98
2022-09-03T12:11:33.798Z,2.25
2022-09-03T12:14:03.603Z,1.80
2022-09-03T12:16:45.711Z,1.70
2022-09-03T12:19:20.369Z,1.88
2022-09-03T12:21:49.002Z,1.48
2022-09-03T12:24:16.275Z,1.70
2022-09-03T12:26:45.248Z,1.70
2022-09-03T12:29:23.722Z,1.30
2022-09-03T12:31:55.303Z,1.88
2022-09-03T12:34:23.380Z,1.20
2022-09-03T12:36:51.987Z,2.22
2022-09-03T12:40:04.923Z,2.30
2022-09-03T12:42:10.804Z,1.83
2022-09-03T12:44:39.588Z,1.70
2022-09-03T12:50:01.546Z,1.80
2022-09-03T12:52:30.306Z,1.90
2022-09-03T12:55:00.519Z,2.20
2022-09-03T12:57:41.390Z,1.83
2022-09-03T13:00:14.901Z,1.73
2022-09-03T13:02:47.007Z,1.40
2022-09-03T13:05:17.304Z,1.75
2022-09-03T13:07:46.248Z,1.67
2022-09-03T13:10:21.266Z,2.38
2022-09-03T13:12:53.146Z,1.77
2022-09-03T13:15:23.206Z,2.30
2022-09-03T13:18:02.662Z,1.88
2022-09-03T13:20:35.763Z,1.92
2022-09-03T13:23:12.788Z,2.05
2022-09-03T13:25:44.090Z,1.95
2022-09-03T13:28:17.331Z,2.10
2022-09-03T13:30:49.661Z,2.63
2022-09-03T13:33:20.948Z,2.33
2022-09-03T13:35:50.415Z,1.92
2022-09-03T13:38:24.231Z,2.65
2022-09-03T13:41:06.490Z,2.47
2022-09-03T13:43:38.387Z,2.15
2022-09-03T13:46:14.034Z,1.75
2022-09-03T13:48:43.205Z,2.10
2022-09-03T13:51:12.520Z,2.00
2022-09-03T13:53:50.377Z,2.33
2022-09-03T13:56:24.067Z,1.92
2022-09-03T13:58:57.288Z,1.70
2022-09-03T14:01:27.306Z,1.63
2022-09-03T14:03:56.451Z,1.90
2022-09-03T14:06:34.928Z,1.70
2022-09-03T14:09:07.231Z,2.08
2022-09-03T14:11:41.592Z,2.15
2022-09-03T14:14:14.643Z,1.85
2022-09-03T14:17:14.571Z,2.75
2022-09-03T14:20:00.666Z,2.20
2022-09-03T14:22:33.779Z,1.67
2022-09-03T14:25:03.527Z,2.00
2022-09-03T14:27:31.528Z,2.10
2022-09-03T14:30:01.424Z,2.05
2022-09-03T14:32:31.233Z,2.30
2022-09-03T14:35:13.502Z,1.70
2022-09-03T14:37:50.841Z,1.77
2022-09-03T14:40:19.528Z,2.22
2022-09-03T14:43:04.525Z,1.80
2022-09-03T14:45:53.774Z,2.00
2022-09-03T14:48:37.902Z,2.20
2022-09-03T14:51:11.078Z,1.90
2022-09-03T14:53:55.684Z,2.20
2022-09-03T14:56:26.596Z,2.10
2022-09-03T14:59:03.199Z,2.20
2022-09-03T15:01:38.540Z,1.83
2022-09-03T15:07:09.128Z,2.78
2022-09-03T15:09:40.806Z,2.05
2022-09-03T15:12:11.168Z,2.13
2022-09-03T15:14:57.963Z,2.10
2022-09-03T15:17:41.575Z,2.53
2022-09-03T15:20:15.427Z,2.00
2022-09-03T15:22:50.066Z,1.73
2022-09-03T15:25:20.882Z,2.80
2022-09-03T15:27:57.973Z,1.50
2022-09-03T15:30:33.276Z,2.03
2022-09-03T15:33:07.756Z,1.63
2022-09-03T15:35:40.372Z,2.20
2022-09-03T15:38:11.422Z,2.10
2022-09-03T15:40:42.388Z,1.60
2022-09-03T15:43:11.551Z,2.05
2022-09-03T15:45:43.550Z,2.53
2022-09-03T15:48:20.811Z,2.47
2022-09-03T15:50:53.752Z,2.08
2022-09-03T15:53:29.799Z,1.98
2022-09-03T15:56:03.927Z,2.05
2022-09-03T15:58:34.760Z,1.73
2022-09-03T16:01:04.020Z,1.42
2022-09-03T16:26:29.859Z,2.15
2022-09-03T16:29:01.170Z,1.77
2022-09-03T16:31:33.157Z,1.40
2022-09-03T16:34:04.323Z,2.22
2022-09-03T16:36:38.146Z,1.92
2022-09-03T16:39:10.099Z,1.92
2022-09-03T16:41:44.085Z,1.73
2022-09-03T16:44:18.031Z,2.05
2022-09-03T16:46:51.760Z,2.13
2022-09-03T16:49:37.840Z,2.42
2022-09-03T16:52:08.730Z,1.70
2022-09-03T16:54:42.649Z,2.03
2022-09-03T16:57:19.791Z,1.95
2022-09-03T17:00:00.421Z,1.90
2022-09-03T17:02:43.531Z,1.48
2022-09-03T17:05:17.012Z,1.25
2022-09-03T17:10:38.285Z,2.35
2022-09-03T17:13:19.501Z,2.03
2022-09-03T17:15:50.442Z,2.10
2022-09-03T17:18:22.567Z,1.92
2022-09-03T17:27:25.141Z,1.88
2022-09-03T17:27:46.404Z,2.05
2022-09-03T17:30:20.185Z,1.63
2022-09-03T17:32:55.256Z,1.50
2022-09-03T17:35:36.103Z,2.03
2022-09-03T17:38:11.187Z,2.15
2022-09-03T17:40:42.511Z,1.88
2022-09-03T17:43:15.871Z,1.98
2022-09-03T17:45:49.041Z,2.67
2022-09-03T17:48:31.343Z,2.03
2022-09-03T17:51:01.459Z,2.08
2022-09-03T17:53:37.103Z,2.50
2022-09-03T17:56:07.124Z,2.10
2022-09-03T17:58:36.056Z,2.17
2022-09-03T18:01:08.384Z,2.30
2022-09-03T18:03:41.910Z,1.90
2022-09-03T18:06:10.691Z,2.15
2022-09-03T18:08:46.220Z,2.65
2022-09-03T18:16:42.792Z,2.15
2022-09-03T18:19:14.372Z,1.80
2022-09-03T18:21:42.948Z,1.92
2022-09-03T18:24:22.883Z,1.70
2022-09-03T18:26:52.780Z,1.88
2022-09-03T18:29:23.727Z,2.00
2022-09-03T18:31:52.371Z,2.47
2022-09-03T18:34:21.017Z,2.15
2022-09-03T18:36:48.412Z,1.73
2022-09-03T18:39:16.972Z,2.28
2022-09-03T18:41:53.160Z,1.83
2022-09-03T18:44:26.016Z,1.60
2022-09-03T18:49:49.695Z,1.65
2022-09-03T18:52:19.251Z,2.28
2022-09-03T18:55:07.938Z,1.80
2022-09-03T18:57:45.095Z,2.33
2022-09-03T19:00:16.636Z,1.77
2022-09-03T19:02:53.514Z,2.15
2022-09-03T19:05:25.799Z,2.28
2022-09-03T19:08:00.147Z,1.92
2022-09-03T19:10:29.871Z,1.80
2022-09-03T19:13:08.113Z,2.40
2022-09-03T19:15:39.279Z,2.00
2022-09-03T19:18:11.152Z,1.92
2022-09-03T19:20:39.716Z,2.17
2022-09-03T19:23:07.067Z,2.20
2022-09-03T19:25:34.338Z,2.45
2022-09-03T19:28:07.575Z,2.53
2022-09-03T19:30:53.689Z,2.60
2022-09-03T19:33:26.579Z,2.28
2022-09-03T19:35:59.514Z,2.58
2022-09-03T19:38:32.832Z,2.22
2022-09-03T19:41:09.158Z,2.03
2022-09-03T19:43:41.725Z,1.90
2022-09-03T19:46:13.337Z,1.60
2022-09-03T19:48:47.156Z,2.33
2022-09-03T19:51:16.811Z,2.05
2022-09-03T19:53:44.300Z,2.03
2022-09-03T19:56:13.291Z,1.33
2022-09-03T19:58:44.270Z,2.10
2022-09-03T20:01:12.365Z,1.38
2022-09-03T20:03:39.807Z,2.22
2022-09-03T20:06:11.439Z,2.17
2022-09-03T20:12:23.215Z,1.92
2022-09-03T20:14:50.463Z,2.60
2022-09-03T20:17:23.844Z,3.03
2022-09-03T20:19:58.195Z,2.33
2022-09-03T20:22:29.677Z,2.30
2022-09-03T20:25:02.443Z,2.55
2022-09-03T20:27:34.991Z,2.60
2022-09-03T20:30:13.421Z,2.60
2022-09-03T20:33:03.340Z,2.72
2022-09-03T20:35:51.341Z,2.70
2022-09-03T20:38:26.001Z,2.58
2022-09-03T20:40:55.712Z,2.45
2022-09-03T20:43:48.332Z,2.72
2022-09-03T20:46:26.258Z,2.38
2022-09-03T20:49:00.637Z,2.60
2022-09-03T20:51:35.683Z,2.50
2022-09-03T20:54:08.404Z,2.33
2022-09-03T20:56:40.666Z,2.50
2022-09-03T20:59:14.444Z,3.80
2022-09-03T21:01:46.591Z,3.00
2022-09-03T21:04:22.647Z,3.03
2022-09-03T21:06:54.235Z,3.10
2022-09-03T21:09:36.664Z,3.40
2022-09-03T21:12:06.787Z,3.10
2022-09-03T21:14:39.744Z,3.25
2022-09-03T21:17:15.867Z,3.28
2022-09-03T21:19:54.198Z,2.83
2022-09-03T21:22:28.078Z,3.45
2022-09-03T21:24:57.678Z,3.50
2022-09-03T21:27:27.054Z,3.20
2022-09-03T21:30:00.027Z,3.38
2022-09-03T21:32:31.904Z,2.75
2022-09-03T21:35:01.109Z,3.50
2022-09-03T21:37:28.554Z,3.78
2022-09-03T21:39:56.882Z,4.35
2022-09-03T21:42:27.550Z,3.60
2022-09-03T21:44:58.976Z,4.00
2022-09-03T21:47:28.434Z,4.35
2022-09-03T21:49:59.193Z,4.60
2022-09-03T21:52:29.752Z,4.40
2022-09-03T21:54:57.027Z,4.15
2022-09-03T21:57:29.932Z,3.80
2022-09-03T22:00:08.492Z,4.45
2022-09-03T22:02:43.152Z,4.07
2022-09-03T22:05:10.797Z,4.70
2022-09-03T22:07:43.186Z,4.15
2022-09-03T22:10:16.750Z,4.90
2022-09-03T22:12:50.814Z,4.95
2022-09-03T22:15:19.284Z,5.20
2022-09-03T22:17:51.131Z,5.78
2022-09-03T22:20:18.461Z,4.82
2022-09-03T22:22:50.764Z,5.35
2022-09-03T22:25:20.412Z,5.18
2022-09-03T22:27:50.533Z,5.70
2022-09-03T22:30:21.851Z,5.93
2022-09-03T22:32:59.499Z,4.95
2022-09-03T22:35:41.623Z,5.15
2022-09-03T22:38:23.854Z,5.53
2022-09-03T22:40:53.027Z,5.97
2022-09-03T22:43:27.552Z,5.60
2022-09-03T22:46:03.209Z,5.88
2022-09-03T22:54:12.277Z,6.05
2022-09-03T22:56:41.327Z,5.18
2022-09-03T22:59:12.752Z,5.43
2022-09-03T23:01:42.064Z,5.28
2022-09-03T23:04:13.729Z,4.65
2022-09-03T23:06:44.604Z,4.75
2022-09-03T23:09:16.322Z,5.43
2022-09-03T23:11:44.888Z,5.43
2022-09-03T23:14:13.321Z,7.18
2022-09-03T23:16:42.767Z,5.07
2022-09-03T23:19:13.988Z,5.72
2022-09-03T23:21:44.035Z,5.63
2022-09-03T23:24:16.307Z,6.63
2022-09-03T23:26:46.859Z,6.72
2022-09-03T23:29:16.843Z,5.57
2022-09-03T23:31:44.242Z,5.32
2022-09-03T23:34:12.331Z,4.75
2022-09-03T23:37:10.309Z,5.70
2022-09-03T23:39:54.607Z,5.88
2022-09-03T23:42:30.218Z,6.10
2022-09-03T23:45:04.927Z,5.88
2022-09-03T23:47:41.579Z,5.18
2022-09-03T23:50:26.087Z,5.70
2022-09-03T23:53:00.294Z,5.75
2022-09-03T23:55:33.796Z,5.28
2022-09-03T23:58:07.606Z,6.78
